ADDS METAR Data INFO
IDs: Format: Raw Decoded Include TAF

Data at: 1311 UTC 11 Dec 2017

KFFT 111253Z AUTO 00000KT 10SM CLR M05/M08 A3008 RMK AO2 SLP195 T10501083
KFFT 111153Z AUTO 00000KT 10SM CLR M05/M08 A3009 RMK AO2 SLP199 T10501083 10000 21056 55001
KFFT 111053Z AUTO 00000KT 10SM CLR M06/M08 A3009 RMK AO2 SLP198 T10561083
KFFT 110953Z AUTO 00000KT 10SM CLR M04/M08 A3009 RMK AO2 SLP197 T10441083
KFFT 110853Z AUTO 24003KT 10SM CLR M02/M07 A3010 RMK AO2 SLP198 T10221072 58001
KFFT 110753Z AUTO 23004KT 10SM CLR M02/M07 A3010 RMK AO2 SLP200 T10171067
KFFT 110653Z AUTO 24004KT 10SM CLR M01/M07 A3010 RMK AO2 SLP200 T10061067
KFFT 110553Z AUTO 24004KT 10SM CLR 00/M07 A3010 RMK AO2 SLP199 T00001067 10011 21011 51013
KFFT 110453Z AUTO 24007KT 10SM CLR 00/M07 A3009 RMK AO2 SLP195 T00001072 400441078
KFFT 110353Z AUTO 23006KT 10SM CLR M01/M07 A3007 RMK AO2 SLP191 T10061072
KFFT 110253Z AUTO 22008KT 10SM CLR 01/M08 A3006 RMK AO2 SLP186 T00061078 53006
KFFT 110153Z AUTO 21008KT 10SM CLR 00/M08 A3005 RMK AO2 SLP184 T00001078
KFFT 110053Z AUTO 22005KT 10SM CLR 00/M08 A3005 RMK AO2 SLP185 T00001078
KFFT 102353Z AUTO 21004KT 10SM CLR 00/M08 A3004 RMK AO2 SLP182 T00001078 10044 20000 53016
KFFT 102253Z AUTO 23007KT 10SM CLR 02/M08 A3003 RMK AO2 SLP176 T00171078
KFFT 102153Z AUTO 21013G20KT 10SM CLR 03/M08 A2999 RMK AO2 SLP163 T00331083
KFFT 102053Z AUTO 20012G22KT 10SM CLR 04/M08 A3000 RMK AO2 SLP164 T00391083 56037
KFFT 101953Z AUTO 20014G22KT 10SM CLR 03/M09 A3002 RMK AO2 SLP174 T00281089
KFFT 101853Z AUTO 22015G22KT 10SM FEW095 02/M09 A3007 RMK AO2 SLP189 T00221089
KFFT 101753Z AUTO 22013KT 10SM CLR 02/M08 A3011 RMK AO2 SLP203 T00221083 10022 21078 58021
KFFT 101653Z AUTO 22010G19KT 10SM OVC120 01/M08 A3014 RMK AO2 SLP213 T00061078
KFFT 101553Z AUTO 22010KT 10SM BKN110 00/M08 A3016 RMK AO2 SLP219 T00001083
KFFT 101453Z AUTO 22010KT 10SM OVC100 M02/M08 A3017 RMK AO2 SLP226 T10221083 51003
KFFT 101353Z AUTO 21005KT 10SM CLR M05/M09 A3017 RMK AO2 SLP226 T10501094
KFFT 101253Z AUTO 22006KT 10SM CLR M06/M10 A3017 RMK AO2 SLP226 T10611100
KFFT 101153Z AUTO 23005KT 10SM CLR M08/M11 A3016 RMK AO2 SLP225 T10781106 11022 21078 53008
KFFT 101053Z AUTO 23004KT 10SM CLR M07/M11 A3015 RMK AO2 SLP220 T10671106
KFFT 100953Z AUTO 25005KT 10SM CLR M06/M11 A3014 RMK AO2 SLP217 T10561106
KFFT 100853Z AUTO 25004KT 10SM CLR M05/M10 A3014 RMK AO2 SLP215 T10501100 51010
KFFT 100753Z AUTO 26005KT 10SM CLR M04/M10 A3013 RMK AO2 SLP213 T10441100
KFFT 100653Z AUTO 26006KT 10SM CLR M04/M09 A3012 RMK AO2 SLP207 T10391094
KFFT 100553Z AUTO 28005KT 10SM BKN043 M02/M09 A3011 RMK AO2 SLP203 T10221094 11011 21022 51018
KFFT 100453Z AUTO 28008G19KT 250V310 10SM OVC033 M01/M09 A3010 RMK AO2 SLP200 T10111089 400001078
KFFT 100353Z AUTO 28011G18KT 10SM OVC034 M01/M08 A3008 RMK AO2 SLP194 T10111083
KFFT 100253Z AUTO 28009G17KT 10SM OVC033 M01/M08 A3005 RMK AO2 SLP185 T10111083 51028
KFFT 100153Z AUTO 26007KT 10SM BKN039 OVC050 M02/M07 A3003 RMK AO2 SLP177 T10171072